sensor_id;sensor_type;location;lat;lon;timestamp;P1;durP1;ratioP1;P2;durP2;ratioP2
14470;SDS011;7321;50.802;4.336;2023-10-13T00:00:31;22.75;;;19.17;;
14470;SDS011;7321;50.802;4.336;2023-10-13T00:03:06;21.80;;;18.60;;
14470;SDS011;7321;50.802;4.336;2023-10-13T00:05:40;25.85;;;18.95;;
14470;SDS011;7321;50.802;4.336;2023-10-13T00:08:08;25.83;;;18.80;;
14470;SDS011;7321;50.802;4.336;2023-10-13T00:10:35;24.77;;;19.50;;
14470;SDS011;7321;50.802;4.336;2023-10-13T00:13:01;24.90;;;19.63;;
14470;SDS011;7321;50.802;4.336;2023-10-13T00:15:44;25.40;;;19.50;;
14470;SDS011;7321;50.802;4.336;2023-10-13T00:18:22;24.35;;;19.38;;
14470;SDS011;7321;50.802;4.336;2023-10-13T00:20:51;32.03;;;19.58;;
14470;SDS011;7321;50.802;4.336;2023-10-13T00:23:21;29.25;;;19.48;;
14470;SDS011;7321;50.802;4.336;2023-10-13T00:25:51;26.83;;;19.60;;
14470;SDS011;7321;50.802;4.336;2023-10-13T00:28:25;24.60;;;19.98;;
14470;SDS011;7321;50.802;4.336;2023-10-13T00:31:00;23.67;;;19.45;;
14470;SDS011;7321;50.802;4.336;2023-10-13T00:33:36;24.45;;;19.85;;
14470;SDS011;7321;50.802;4.336;2023-10-13T00:36:03;28.58;;;19.88;;
14470;SDS011;7321;50.802;4.336;2023-10-13T00:38:30;26.83;;;20.00;;
14470;SDS011;7321;50.802;4.336;2023-10-13T00:40:57;24.58;;;19.38;;
14470;SDS011;7321;50.802;4.336;2023-10-13T00:43:31;27.50;;;20.65;;
14470;SDS011;7321;50.802;4.336;2023-10-13T00:46:00;24.85;;;20.98;;
14470;SDS011;7321;50.802;4.336;2023-10-13T00:48:31;32.22;;;21.52;;
14470;SDS011;7321;50.802;4.336;2023-10-13T00:51:03;28.17;;;21.63;;
14470;SDS011;7321;50.802;4.336;2023-10-13T00:53:36;25.15;;;20.33;;
14470;SDS011;7321;50.802;4.336;2023-10-13T00:56:05;34.17;;;21.70;;
14470;SDS011;7321;50.802;4.336;2023-10-13T00:58:33;30.60;;;22.33;;
14470;SDS011;7321;50.802;4.336;2023-10-13T01:01:00;28.70;;;21.10;;
14470;SDS011;7321;50.802;4.336;2023-10-13T01:03:46;28.45;;;22.02;;
14470;SDS011;7321;50.802;4.336;2023-10-13T01:06:21;27.35;;;22.35;;
14470;SDS011;7321;50.802;4.336;2023-10-13T01:09:11;32.00;;;22.13;;
14470;SDS011;7321;50.802;4.336;2023-10-13T01:11:43;29.10;;;21.67;;
14470;SDS011;7321;50.802;4.336;2023-10-13T01:14:17;27.80;;;21.88;;
14470;SDS011;7321;50.802;4.336;2023-10-13T01:16:45;29.02;;;22.35;;
14470;SDS011;7321;50.802;4.336;2023-10-13T01:19:16;29.20;;;21.17;;
14470;SDS011;7321;50.802;4.336;2023-10-13T01:21:49;28.40;;;20.63;;
14470;SDS011;7321;50.802;4.336;2023-10-13T01:24:21;24.35;;;20.13;;
14470;SDS011;7321;50.802;4.336;2023-10-13T01:26:49;28.02;;;20.50;;
14470;SDS011;7321;50.802;4.336;2023-10-13T01:29:18;22.00;;;19.10;;
14470;SDS011;7321;50.802;4.336;2023-10-13T01:31:44;25.33;;;19.38;;
14470;SDS011;7321;50.802;4.336;2023-10-13T01:34:15;26.40;;;19.10;;
14470;SDS011;7321;50.802;4.336;2023-10-13T01:36:51;24.83;;;18.25;;
14470;SDS011;7321;50.802;4.336;2023-10-13T01:39:21;20.10;;;17.20;;
14470;SDS011;7321;50.802;4.336;2023-10-13T01:41:52;24.60;;;17.50;;
14470;SDS011;7321;50.802;4.336;2023-10-13T01:44:24;23.70;;;16.50;;
14470;SDS011;7321;50.802;4.336;2023-10-13T01:46:59;21.30;;;15.90;;
14470;SDS011;7321;50.802;4.336;2023-10-13T01:49:32;20.52;;;17.00;;
14470;SDS011;7321;50.802;4.336;2023-10-13T01:52:07;23.45;;;16.33;;
14470;SDS011;7321;50.802;4.336;2023-10-13T01:54:45;19.10;;;15.23;;
14470;SDS011;7321;50.802;4.336;2023-10-13T01:57:14;23.08;;;16.17;;
14470;SDS011;7321;50.802;4.336;2023-10-13T01:59:48;19.95;;;15.50;;
14470;SDS011;7321;50.802;4.336;2023-10-13T02:02:15;17.90;;;14.25;;
14470;SDS011;7321;50.802;4.336;2023-10-13T02:04:51;22.08;;;14.52;;
14470;SDS011;7321;50.802;4.336;2023-10-13T02:07:26;20.38;;;15.20;;
14470;SDS011;7321;50.802;4.336;2023-10-13T02:09:58;18.20;;;13.70;;
14470;SDS011;7321;50.802;4.336;2023-10-13T02:12:24;19.52;;;14.05;;
14470;SDS011;7321;50.802;4.336;2023-10-13T02:15:08;20.55;;;14.45;;
14470;SDS011;7321;50.802;4.336;2023-10-13T02:17:38;19.42;;;14.30;;
14470;SDS011;7321;50.802;4.336;2023-10-13T02:20:07;19.80;;;13.90;;
14470;SDS011;7321;50.802;4.336;2023-10-13T02:22:40;21.33;;;13.98;;
14470;SDS011;7321;50.802;4.336;2023-10-13T02:25:18;19.33;;;14.15;;
14470;SDS011;7321;50.802;4.336;2023-10-13T02:28:02;18.67;;;13.63;;
14470;SDS011;7321;50.802;4.336;2023-10-13T02:30:37;18.33;;;13.65;;
14470;SDS011;7321;50.802;4.336;2023-10-13T02:33:10;20.52;;;12.85;;
14470;SDS011;7321;50.802;4.336;2023-10-13T02:35:37;20.58;;;13.52;;
14470;SDS011;7321;50.802;4.336;2023-10-13T02:38:09;17.60;;;13.07;;
14470;SDS011;7321;50.802;4.336;2023-10-13T02:40:39;19.67;;;12.65;;
14470;SDS011;7321;50.802;4.336;2023-10-13T02:43:04;19.40;;;13.43;;
14470;SDS011;7321;50.802;4.336;2023-10-13T02:45:31;17.02;;;12.50;;
14470;SDS011;7321;50.802;4.336;2023-10-13T02:48:01;21.05;;;12.30;;
14470;SDS011;7321;50.802;4.336;2023-10-13T02:50:39;19.48;;;12.85;;
14470;SDS011;7321;50.802;4.336;2023-10-13T02:53:09;19.88;;;13.52;;
14470;SDS011;7321;50.802;4.336;2023-10-13T02:55:39;16.90;;;13.15;;
14470;SDS011;7321;50.802;4.336;2023-10-13T02:58:27;22.70;;;12.80;;
14470;SDS011;7321;50.802;4.336;2023-10-13T03:01:09;18.08;;;12.43;;
14470;SDS011;7321;50.802;4.336;2023-10-13T03:03:54;17.15;;;12.23;;
14470;SDS011;7321;50.802;4.336;2023-10-13T03:06:21;17.67;;;11.57;;
14470;SDS011;7321;50.802;4.336;2023-10-13T03:09:01;20.10;;;12.27;;
14470;SDS011;7321;50.802;4.336;2023-10-13T03:11:40;15.30;;;12.00;;
14470;SDS011;7321;50.802;4.336;2023-10-13T03:14:09;16.90;;;12.10;;
14470;SDS011;7321;50.802;4.336;2023-10-13T03:16:48;17.17;;;11.57;;
14470;SDS011;7321;50.802;4.336;2023-10-13T03:19:18;18.98;;;10.90;;
14470;SDS011;7321;50.802;4.336;2023-10-13T03:21:47;17.10;;;11.65;;
14470;SDS011;7321;50.802;4.336;2023-10-13T03:24:30;18.27;;;12.30;;
14470;SDS011;7321;50.802;4.336;2023-10-13T03:27:02;19.70;;;11.80;;
14470;SDS011;7321;50.802;4.336;2023-10-13T03:29:35;15.95;;;11.23;;
14470;SDS011;7321;50.802;4.336;2023-10-13T03:32:02;17.48;;;11.40;;
14470;SDS011;7321;50.802;4.336;2023-10-13T03:34:32;15.18;;;10.93;;
14470;SDS011;7321;50.802;4.336;2023-10-13T03:37:00;16.88;;;11.45;;
14470;SDS011;7321;50.802;4.336;2023-10-13T03:39:36;21.17;;;11.45;;
14470;SDS011;7321;50.802;4.336;2023-10-13T03:42:01;17.80;;;11.07;;
14470;SDS011;7321;50.802;4.336;2023-10-13T03:44:30;19.75;;;11.18;;
14470;SDS011;7321;50.802;4.336;2023-10-13T03:46:57;18.63;;;10.90;;
14470;SDS011;7321;50.802;4.336;2023-10-13T03:49:31;17.67;;;11.32;;
14470;SDS011;7321;50.802;4.336;2023-10-13T03:52:02;16.98;;;10.32;;
14470;SDS011;7321;50.802;4.336;2023-10-13T03:54:31;14.50;;;9.60;;
14470;SDS011;7321;50.802;4.336;2023-10-13T03:57:00;16.85;;;10.38;;
14470;SDS011;7321;50.802;4.336;2023-10-13T03:59:29;19.60;;;10.18;;
14470;SDS011;7321;50.802;4.336;2023-10-13T04:02:01;14.60;;;10.52;;
14470;SDS011;7321;50.802;4.336;2023-10-13T04:04:29;17.10;;;10.13;;
14470;SDS011;7321;50.802;4.336;2023-10-13T04:07:13;16.75;;;9.55;;
14470;SDS011;7321;50.802;4.336;2023-10-13T04:09:59;16.27;;;9.63;;
14470;SDS011;7321;50.802;4.336;2023-10-13T04:12:45;17.85;;;9.73;;
14470;SDS011;7321;50.802;4.336;2023-10-13T04:15:29;16.55;;;9.60;;
14470;SDS011;7321;50.802;4.336;2023-10-13T04:18:27;18.58;;;10.07;;
14470;SDS011;7321;50.802;4.336;2023-10-13T04:21:11;15.27;;;9.60;;
14470;SDS011;7321;50.802;4.336;2023-10-13T04:23:56;15.77;;;9.13;;
14470;SDS011;7321;50.802;4.336;2023-10-13T04:26:54;17.55;;;10.10;;
14470;SDS011;7321;50.802;4.336;2023-10-13T04:29:40;19.15;;;9.50;;
14470;SDS011;7321;50.802;4.336;2023-10-13T04:32:16;15.07;;;9.25;;
14470;SDS011;7321;50.802;4.336;2023-10-13T04:34:58;16.05;;;9.23;;
14470;SDS011;7321;50.802;4.336;2023-10-13T04:37:54;16.15;;;8.55;;
14470;SDS011;7321;50.802;4.336;2023-10-13T04:40:40;17.35;;;9.70;;
14470;SDS011;7321;50.802;4.336;2023-10-13T04:43:23;15.02;;;9.18;;
14470;SDS011;7321;50.802;4.336;2023-10-13T04:46:09;15.82;;;9.98;;
14470;SDS011;7321;50.802;4.336;2023-10-13T04:49:00;16.90;;;10.48;;
14470;SDS011;7321;50.802;4.336;2023-10-13T04:51:35;16.45;;;10.20;;
14470;SDS011;7321;50.802;4.336;2023-10-13T04:54:20;14.57;;;9.68;;
14470;SDS011;7321;50.802;4.336;2023-10-13T04:56:59;20.65;;;10.25;;
14470;SDS011;7321;50.802;4.336;2023-10-13T04:59:48;17.88;;;9.93;;
14470;SDS011;7321;50.802;4.336;2023-10-13T05:02:40;21.40;;;10.02;;
14470;SDS011;7321;50.802;4.336;2023-10-13T05:05:20;16.20;;;8.65;;
14470;SDS011;7321;50.802;4.336;2023-10-13T05:08:04;16.98;;;8.82;;
14470;SDS011;7321;50.802;4.336;2023-10-13T05:10:49;16.98;;;8.10;;
14470;SDS011;7321;50.802;4.336;2023-10-13T05:13:33;18.02;;;9.02;;
14470;SDS011;7321;50.802;4.336;2023-10-13T05:16:18;16.42;;;8.15;;
14470;SDS011;7321;50.802;4.336;2023-10-13T05:19:02;17.67;;;8.18;;
14470;SDS011;7321;50.802;4.336;2023-10-13T05:21:46;15.05;;;7.28;;
14470;SDS011;7321;50.802;4.336;2023-10-13T05:24:31;13.50;;;7.53;;
14470;SDS011;7321;50.802;4.336;2023-10-13T05:27:15;17.33;;;7.57;;
14470;SDS011;7321;50.802;4.336;2023-10-13T05:30:06;14.77;;;7.47;;
14470;SDS011;7321;50.802;4.336;2023-10-13T05:32:51;15.80;;;7.50;;
14470;SDS011;7321;50.802;4.336;2023-10-13T05:35:35;12.68;;;7.03;;
14470;SDS011;7321;50.802;4.336;2023-10-13T05:38:20;15.48;;;7.40;;
14470;SDS011;7321;50.802;4.336;2023-10-13T05:41:05;18.00;;;7.40;;
14470;SDS011;7321;50.802;4.336;2023-10-13T05:43:49;16.63;;;7.75;;
14470;SDS011;7321;50.802;4.336;2023-10-13T05:46:34;16.17;;;7.63;;
14470;SDS011;7321;50.802;4.336;2023-10-13T05:49:03;18.60;;;8.27;;
14470;SDS011;7321;50.802;4.336;2023-10-13T05:51:41;19.55;;;7.72;;
14470;SDS011;7321;50.802;4.336;2023-10-13T05:54:17;19.35;;;7.50;;
14470;SDS011;7321;50.802;4.336;2023-10-13T05:56:49;14.38;;;7.05;;
14470;SDS011;7321;50.802;4.336;2023-10-13T05:59:35;15.32;;;6.65;;
14470;SDS011;7321;50.802;4.336;2023-10-13T06:02:21;16.63;;;7.95;;
14470;SDS011;7321;50.802;4.336;2023-10-13T06:05:07;17.25;;;7.00;;
14470;SDS011;7321;50.802;4.336;2023-10-13T06:07:53;19.60;;;7.65;;
14470;SDS011;7321;50.802;4.336;2023-10-13T06:10:38;16.05;;;7.20;;
14470;SDS011;7321;50.802;4.336;2023-10-13T06:13:23;13.32;;;7.13;;
14470;SDS011;7321;50.802;4.336;2023-10-13T06:16:11;17.25;;;7.18;;
14470;SDS011;7321;50.802;4.336;2023-10-13T06:18:59;16.00;;;7.85;;
14470;SDS011;7321;50.802;4.336;2023-10-13T06:21:44;13.77;;;7.13;;
14470;SDS011;7321;50.802;4.336;2023-10-13T06:24:28;16.33;;;8.05;;
14470;SDS011;7321;50.802;4.336;2023-10-13T06:27:13;15.57;;;7.65;;
14470;SDS011;7321;50.802;4.336;2023-10-13T06:29:58;15.15;;;7.45;;
14470;SDS011;7321;50.802;4.336;2023-10-13T06:32:26;13.23;;;7.05;;
14470;SDS011;7321;50.802;4.336;2023-10-13T06:34:52;14.32;;;6.55;;
14470;SDS011;7321;50.802;4.336;2023-10-13T06:37:33;15.48;;;7.20;;
14470;SDS011;7321;50.802;4.336;2023-10-13T06:40:00;11.80;;;7.10;;
14470;SDS011;7321;50.802;4.336;2023-10-13T06:42:32;14.73;;;7.25;;
14470;SDS011;7321;50.802;4.336;2023-10-13T06:45:00;17.10;;;7.65;;
14470;SDS011;7321;50.802;4.336;2023-10-13T06:47:36;16.60;;;7.70;;
14470;SDS011;7321;50.802;4.336;2023-10-13T06:50:14;16.70;;;7.50;;
14470;SDS011;7321;50.802;4.336;2023-10-13T06:52:44;15.55;;;7.65;;
14470;SDS011;7321;50.802;4.336;2023-10-13T06:55:14;15.13;;;7.13;;
14470;SDS011;7321;50.802;4.336;2023-10-13T06:57:49;9.80;;;6.38;;
14470;SDS011;7321;50.802;4.336;2023-10-13T07:00:17;14.02;;;6.85;;
14470;SDS011;7321;50.802;4.336;2023-10-13T07:02:59;13.40;;;6.82;;
14470;SDS011;7321;50.802;4.336;2023-10-13T07:05:45;15.57;;;7.90;;
14470;SDS011;7321;50.802;4.336;2023-10-13T07:08:14;17.77;;;7.45;;
14470;SDS011;7321;50.802;4.336;2023-10-13T07:10:48;13.50;;;6.65;;
14470;SDS011;7321;50.802;4.336;2023-10-13T07:13:33;15.65;;;7.03;;
14470;SDS011;7321;50.802;4.336;2023-10-13T07:16:03;13.98;;;7.45;;
14470;SDS011;7321;50.802;4.336;2023-10-13T07:18:38;14.15;;;7.40;;
14470;SDS011;7321;50.802;4.336;2023-10-13T07:21:15;12.18;;;7.00;;
14470;SDS011;7321;50.802;4.336;2023-10-13T07:23:41;12.82;;;7.05;;
14470;SDS011;7321;50.802;4.336;2023-10-13T07:26:25;12.80;;;7.53;;
14470;SDS011;7321;50.802;4.336;2023-10-13T07:28:52;11.05;;;7.05;;
14470;SDS011;7321;50.802;4.336;2023-10-13T07:31:18;16.63;;;7.50;;
14470;SDS011;7321;50.802;4.336;2023-10-13T07:33:46;13.07;;;6.50;;
14470;SDS011;7321;50.802;4.336;2023-10-13T07:36:12;12.43;;;7.00;;
14470;SDS011;7321;50.802;4.336;2023-10-13T07:38:43;17.23;;;7.30;;
14470;SDS011;7321;50.802;4.336;2023-10-13T07:41:14;11.93;;;6.97;;
14470;SDS011;7321;50.802;4.336;2023-10-13T07:43:47;17.08;;;7.57;;
14470;SDS011;7321;50.802;4.336;2023-10-13T07:46:15;16.55;;;7.05;;
14470;SDS011;7321;50.802;4.336;2023-10-13T07:48:41;12.30;;;6.43;;
14470;SDS011;7321;50.802;4.336;2023-10-13T07:51:10;14.75;;;7.00;;
14470;SDS011;7321;50.802;4.336;2023-10-13T07:53:45;15.77;;;6.97;;
14470;SDS011;7321;50.802;4.336;2023-10-13T07:56:14;12.88;;;7.22;;
14470;SDS011;7321;50.802;4.336;2023-10-13T07:58:44;16.98;;;10.85;;
14470;SDS011;7321;50.802;4.336;2023-10-13T08:01:31;15.13;;;6.78;;
14470;SDS011;7321;50.802;4.336;2023-10-13T08:03:59;13.00;;;7.43;;
14470;SDS011;7321;50.802;4.336;2023-10-13T08:06:37;15.23;;;7.32;;
14470;SDS011;7321;50.802;4.336;2023-10-13T08:09:05;19.27;;;7.38;;
14470;SDS011;7321;50.802;4.336;2023-10-13T08:11:37;11.95;;;6.00;;
14470;SDS011;7321;50.802;4.336;2023-10-13T08:14:05;15.10;;;7.30;;
14470;SDS011;7321;50.802;4.336;2023-10-13T08:16:42;11.30;;;6.40;;
14470;SDS011;7321;50.802;4.336;2023-10-13T08:19:25;12.70;;;7.13;;
14470;SDS011;7321;50.802;4.336;2023-10-13T08:21:52;12.48;;;6.55;;
14470;SDS011;7321;50.802;4.336;2023-10-13T08:24:24;13.23;;;6.88;;
14470;SDS011;7321;50.802;4.336;2023-10-13T08:27:02;12.13;;;6.57;;
14470;SDS011;7321;50.802;4.336;2023-10-13T08:29:57;10.65;;;6.57;;
14470;SDS011;7321;50.802;4.336;2023-10-13T08:32:27;13.95;;;7.40;;
14470;SDS011;7321;50.802;4.336;2023-10-13T08:34:54;16.92;;;7.53;;
14470;SDS011;7321;50.802;4.336;2023-10-13T08:37:21;16.05;;;7.93;;
14470;SDS011;7321;50.802;4.336;2023-10-13T08:39:48;11.57;;;7.28;;
14470;SDS011;7321;50.802;4.336;2023-10-13T08:42:43;13.88;;;6.85;;
14470;SDS011;7321;50.802;4.336;2023-10-13T08:47:49;16.38;;;7.28;;
14470;SDS011;7321;50.802;4.336;2023-10-13T08:50:32;15.35;;;6.93;;
14470;SDS011;7321;50.802;4.336;2023-10-13T08:53:15;12.10;;;7.30;;
14470;SDS011;7321;50.802;4.336;2023-10-13T08:58:45;17.45;;;7.30;;
14470;SDS011;7321;50.802;4.336;2023-10-13T09:01:24;15.82;;;7.72;;
14470;SDS011;7321;50.802;4.336;2023-10-13T09:04:07;15.05;;;7.68;;
14470;SDS011;7321;50.802;4.336;2023-10-13T09:06:53;13.10;;;7.30;;
14470;SDS011;7321;50.802;4.336;2023-10-13T09:09:33;15.07;;;7.68;;
14470;SDS011;7321;50.802;4.336;2023-10-13T09:15:01;19.88;;;8.13;;
14470;SDS011;7321;50.802;4.336;2023-10-13T09:17:40;12.52;;;7.85;;
14470;SDS011;7321;50.802;4.336;2023-10-13T09:20:15;11.68;;;7.75;;
14470;SDS011;7321;50.802;4.336;2023-10-13T09:22:49;11.95;;;6.97;;
14470;SDS011;7321;50.802;4.336;2023-10-13T09:25:39;19.38;;;7.78;;
14470;SDS011;7321;50.802;4.336;2023-10-13T09:28:19;13.15;;;7.22;;
14470;SDS011;7321;50.802;4.336;2023-10-13T09:30:48;16.30;;;8.05;;
14470;SDS011;7321;50.802;4.336;2023-10-13T09:33:22;16.35;;;7.70;;
14470;SDS011;7321;50.802;4.336;2023-10-13T09:36:04;9.60;;;6.55;;
14470;SDS011;7321;50.802;4.336;2023-10-13T09:38:36;15.45;;;7.80;;
14470;SDS011;7321;50.802;4.336;2023-10-13T09:41:06;14.15;;;8.15;;
14470;SDS011;7321;50.802;4.336;2023-10-13T09:43:51;12.63;;;7.93;;
14470;SDS011;7321;50.802;4.336;2023-10-13T09:46:21;20.55;;;7.95;;
14470;SDS011;7321;50.802;4.336;2023-10-13T09:48:54;13.13;;;7.38;;
14470;SDS011;7321;50.802;4.336;2023-10-13T09:51:34;16.33;;;8.30;;
14470;SDS011;7321;50.802;4.336;2023-10-13T09:54:03;17.38;;;7.72;;
14470;SDS011;7321;50.802;4.336;2023-10-13T09:56:42;15.85;;;8.25;;
14470;SDS011;7321;50.802;4.336;2023-10-13T10:00:06;13.73;;;7.35;;
14470;SDS011;7321;50.802;4.336;2023-10-13T10:02:31;15.60;;;7.32;;
14470;SDS011;7321;50.802;4.336;2023-10-13T10:04:57;17.50;;;8.02;;
14470;SDS011;7321;50.802;4.336;2023-10-13T10:07:42;13.23;;;7.10;;
14470;SDS011;7321;50.802;4.336;2023-10-13T10:10:13;13.82;;;7.45;;
14470;SDS011;7321;50.802;4.336;2023-10-13T10:13:00;17.45;;;7.28;;
14470;SDS011;7321;50.802;4.336;2023-10-13T10:15:40;12.63;;;7.35;;
14470;SDS011;7321;50.802;4.336;2023-10-13T10:18:18;15.48;;;7.88;;
14470;SDS011;7321;50.802;4.336;2023-10-13T10:20:50;25.77;;;16.48;;
14470;SDS011;7321;50.802;4.336;2023-10-13T10:25:51;46.72;;;34.42;;
14470;SDS011;7321;50.802;4.336;2023-10-13T10:28:18;19.45;;;12.00;;
14470;SDS011;7321;50.802;4.336;2023-10-13T10:30:45;18.27;;;10.07;;
14470;SDS011;7321;50.802;4.336;2023-10-13T10:33:11;18.15;;;8.60;;
14470;SDS011;7321;50.802;4.336;2023-10-13T10:35:39;15.85;;;8.32;;
14470;SDS011;7321;50.802;4.336;2023-10-13T10:38:11;14.77;;;7.78;;
14470;SDS011;7321;50.802;4.336;2023-10-13T10:41:03;16.85;;;7.88;;
14470;SDS011;7321;50.802;4.336;2023-10-13T10:46:18;15.40;;;7.15;;
14470;SDS011;7321;50.802;4.336;2023-10-13T10:49:07;13.57;;;7.65;;
14470;SDS011;7321;50.802;4.336;2023-10-13T10:51:33;17.23;;;7.88;;
14470;SDS011;7321;50.802;4.336;2023-10-13T10:54:17;16.85;;;7.93;;
14470;SDS011;7321;50.802;4.336;2023-10-13T10:56:44;14.85;;;7.38;;
14470;SDS011;7321;50.802;4.336;2023-10-13T10:59:18;16.30;;;8.05;;
14470;SDS011;7321;50.802;4.336;2023-10-13T11:01:45;18.35;;;7.70;;
14470;SDS011;7321;50.802;4.336;2023-10-13T11:04:17;15.30;;;7.60;;
14470;SDS011;7321;50.802;4.336;2023-10-13T11:06:47;16.08;;;8.10;;
14470;SDS011;7321;50.802;4.336;2023-10-13T11:09:30;13.32;;;7.55;;
14470;SDS011;7321;50.802;4.336;2023-10-13T11:14:49;19.63;;;8.00;;
14470;SDS011;7321;50.802;4.336;2023-10-13T11:17:54;15.70;;;7.75;;
14470;SDS011;7321;50.802;4.336;2023-10-13T11:20:20;21.02;;;7.97;;
14470;SDS011;7321;50.802;4.336;2023-10-13T11:23:12;13.40;;;8.18;;
14470;SDS011;7321;50.802;4.336;2023-10-13T11:25:39;15.10;;;8.32;;
14470;SDS011;7321;50.802;4.336;2023-10-13T11:28:11;14.48;;;8.10;;
14470;SDS011;7321;50.802;4.336;2023-10-13T11:30:58;19.50;;;7.80;;
14470;SDS011;7321;50.802;4.336;2023-10-13T11:33:25;20.90;;;8.23;;
14470;SDS011;7321;50.802;4.336;2023-10-13T11:35:55;20.85;;;7.97;;
14470;SDS011;7321;50.802;4.336;2023-10-13T11:38:22;32.33;;;9.52;;
14470;SDS011;7321;50.802;4.336;2023-10-13T11:40:56;22.27;;;8.32;;
14470;SDS011;7321;50.802;4.336;2023-10-13T11:43:25;20.48;;;7.53;;
14470;SDS011;7321;50.802;4.336;2023-10-13T11:45:52;16.00;;;7.30;;
14470;SDS011;7321;50.802;4.336;2023-10-13T11:48:21;14.85;;;7.65;;
14470;SDS011;7321;50.802;4.336;2023-10-13T11:51:07;16.40;;;7.63;;
14470;SDS011;7321;50.802;4.336;2023-10-13T11:53:42;14.77;;;7.43;;
14470;SDS011;7321;50.802;4.336;2023-10-13T11:56:10;18.10;;;7.78;;
14470;SDS011;7321;50.802;4.336;2023-10-13T11:58:36;17.30;;;6.85;;
14470;SDS011;7321;50.802;4.336;2023-10-13T12:01:07;19.77;;;7.53;;
14470;SDS011;7321;50.802;4.336;2023-10-13T12:03:39;15.10;;;7.53;;
14470;SDS011;7321;50.802;4.336;2023-10-13T12:06:24;15.07;;;7.13;;
14470;SDS011;7321;50.802;4.336;2023-10-13T12:09:07;14.70;;;7.68;;
14470;SDS011;7321;50.802;4.336;2023-10-13T12:11:42;18.50;;;7.25;;
14470;SDS011;7321;50.802;4.336;2023-10-13T12:14:10;16.67;;;7.57;;
14470;SDS011;7321;50.802;4.336;2023-10-13T12:16:42;19.90;;;7.85;;
14470;SDS011;7321;50.802;4.336;2023-10-13T12:19:16;12.52;;;7.03;;
14470;SDS011;7321;50.802;4.336;2023-10-13T12:21:49;16.40;;;7.75;;
14470;SDS011;7321;50.802;4.336;2023-10-13T12:24:22;17.83;;;7.00;;
14470;SDS011;7321;50.802;4.336;2023-10-13T12:27:01;19.98;;;10.88;;
14470;SDS011;7321;50.802;4.336;2023-10-13T12:29:49;26.98;;;21.35;;
14470;SDS011;7321;50.802;4.336;2023-10-13T12:32:17;44.70;;;28.38;;
14470;SDS011;7321;50.802;4.336;2023-10-13T12:34:55;23.08;;;15.35;;
14470;SDS011;7321;50.802;4.336;2023-10-13T12:37:25;17.13;;;12.77;;
14470;SDS011;7321;50.802;4.336;2023-10-13T12:42:50;15.82;;;7.63;;
14470;SDS011;7321;50.802;4.336;2023-10-13T12:45:38;16.95;;;8.32;;
14470;SDS011;7321;50.802;4.336;2023-10-13T12:48:23;18.77;;;7.90;;
14470;SDS011;7321;50.802;4.336;2023-10-13T12:51:07;13.27;;;7.50;;
14470;SDS011;7321;50.802;4.336;2023-10-13T12:53:46;13.77;;;7.55;;
14470;SDS011;7321;50.802;4.336;2023-10-13T12:56:15;17.17;;;7.13;;
14470;SDS011;7321;50.802;4.336;2023-10-13T12:58:42;12.82;;;6.72;;
14470;SDS011;7321;50.802;4.336;2023-10-13T13:01:20;12.82;;;6.70;;
14470;SDS011;7321;50.802;4.336;2023-10-13T13:03:47;13.98;;;7.05;;
14470;SDS011;7321;50.802;4.336;2023-10-13T13:08:55;12.45;;;6.32;;
14470;SDS011;7321;50.802;4.336;2023-10-13T13:11:23;13.70;;;6.97;;
14470;SDS011;7321;50.802;4.336;2023-10-13T13:13:49;10.43;;;6.20;;
14470;SDS011;7321;50.802;4.336;2023-10-13T13:16:16;13.40;;;6.95;;
14470;SDS011;7321;50.802;4.336;2023-10-13T13:18:55;10.63;;;6.63;;
14470;SDS011;7321;50.802;4.336;2023-10-13T13:21:22;18.25;;;7.13;;
14470;SDS011;7321;50.802;4.336;2023-10-13T13:23:50;15.80;;;7.05;;
14470;SDS011;7321;50.802;4.336;2023-10-13T13:26:20;9.95;;;6.72;;
14470;SDS011;7321;50.802;4.336;2023-10-13T13:28:49;17.83;;;7.13;;
14470;SDS011;7321;50.802;4.336;2023-10-13T13:31:18;13.82;;;6.78;;
14470;SDS011;7321;50.802;4.336;2023-10-13T13:33:44;8.27;;;6.38;;
14470;SDS011;7321;50.802;4.336;2023-10-13T13:36:10;14.50;;;7.65;;
14470;SDS011;7321;50.802;4.336;2023-10-13T13:38:39;11.18;;;6.88;;
14470;SDS011;7321;50.802;4.336;2023-10-13T13:41:11;14.80;;;7.13;;
14470;SDS011;7321;50.802;4.336;2023-10-13T13:43:40;12.80;;;7.40;;
14470;SDS011;7321;50.802;4.336;2023-10-13T13:46:16;13.77;;;7.30;;
14470;SDS011;7321;50.802;4.336;2023-10-13T13:48:43;14.80;;;7.10;;
14470;SDS011;7321;50.802;4.336;2023-10-13T13:51:12;11.77;;;6.80;;
14470;SDS011;7321;50.802;4.336;2023-10-13T13:53:45;12.65;;;6.50;;
14470;SDS011;7321;50.802;4.336;2023-10-13T13:56:13;14.05;;;6.90;;
14470;SDS011;7321;50.802;4.336;2023-10-13T13:58:47;12.23;;;8.73;;
14470;SDS011;7321;50.802;4.336;2023-10-13T14:01:15;53.38;;;44.13;;
14470;SDS011;7321;50.802;4.336;2023-10-13T14:03:44;36.30;;;26.25;;
14470;SDS011;7321;50.802;4.336;2023-10-13T14:06:15;17.15;;;11.63;;
14470;SDS011;7321;50.802;4.336;2023-10-13T14:08:49;10.68;;;7.75;;
14470;SDS011;7321;50.802;4.336;2023-10-13T14:11:25;13.43;;;7.28;;
14470;SDS011;7321;50.802;4.336;2023-10-13T14:14:03;15.48;;;7.88;;
14470;SDS011;7321;50.802;4.336;2023-10-13T14:16:51;11.82;;;6.82;;
14470;SDS011;7321;50.802;4.336;2023-10-13T14:19:17;12.50;;;7.93;;
14470;SDS011;7321;50.802;4.336;2023-10-13T14:21:52;11.77;;;6.70;;
14470;SDS011;7321;50.802;4.336;2023-10-13T14:24:19;12.18;;;6.80;;
14470;SDS011;7321;50.802;4.336;2023-10-13T14:27:01;9.60;;;5.97;;
14470;SDS011;7321;50.802;4.336;2023-10-13T14:29:40;10.60;;;6.95;;
14470;SDS011;7321;50.802;4.336;2023-10-13T14:32:08;11.88;;;7.45;;
14470;SDS011;7321;50.802;4.336;2023-10-13T14:34:46;13.45;;;8.27;;
14470;SDS011;7321;50.802;4.336;2023-10-13T14:37:14;15.05;;;7.18;;
14470;SDS011;7321;50.802;4.336;2023-10-13T14:39:46;11.32;;;7.07;;
14470;SDS011;7321;50.802;4.336;2023-10-13T14:42:12;10.60;;;6.90;;
14470;SDS011;7321;50.802;4.336;2023-10-13T14:44:38;12.95;;;7.50;;
14470;SDS011;7321;50.802;4.336;2023-10-13T14:47:07;12.02;;;6.85;;
14470;SDS011;7321;50.802;4.336;2023-10-13T14:49:34;14.38;;;6.40;;
14470;SDS011;7321;50.802;4.336;2023-10-13T14:52:01;10.15;;;6.40;;
14470;SDS011;7321;50.802;4.336;2023-10-13T14:54:27;12.25;;;6.70;;
14470;SDS011;7321;50.802;4.336;2023-10-13T14:56:59;12.02;;;6.72;;
14470;SDS011;7321;50.802;4.336;2023-10-13T14:59:26;12.30;;;6.80;;
14470;SDS011;7321;50.802;4.336;2023-10-13T15:01:52;7.70;;;6.80;;
14470;SDS011;7321;50.802;4.336;2023-10-13T15:04:18;15.50;;;6.80;;
14470;SDS011;7321;50.802;4.336;2023-10-13T15:06:49;15.70;;;7.07;;
14470;SDS011;7321;50.802;4.336;2023-10-13T15:09:15;10.30;;;6.80;;
14470;SDS011;7321;50.802;4.336;2023-10-13T15:11:49;13.95;;;6.95;;
14470;SDS011;7321;50.802;4.336;2023-10-13T15:14:18;7.50;;;5.97;;
14470;SDS011;7321;50.802;4.336;2023-10-13T15:16:50;13.77;;;7.00;;
14470;SDS011;7321;50.802;4.336;2023-10-13T15:19:20;12.10;;;6.97;;
14470;SDS011;7321;50.802;4.336;2023-10-13T15:21:46;15.40;;;6.93;;
14470;SDS011;7321;50.802;4.336;2023-10-13T15:24:15;12.10;;;7.38;;
14470;SDS011;7321;50.802;4.336;2023-10-13T15:26:47;14.35;;;6.97;;
14470;SDS011;7321;50.802;4.336;2023-10-13T15:29:14;15.88;;;7.35;;
14470;SDS011;7321;50.802;4.336;2023-10-13T15:31:44;11.73;;;6.47;;
14470;SDS011;7321;50.802;4.336;2023-10-13T15:34:30;12.45;;;7.10;;
14470;SDS011;7321;50.802;4.336;2023-10-13T15:36:57;11.02;;;6.13;;
14470;SDS011;7321;50.802;4.336;2023-10-13T15:39:24;9.85;;;6.50;;
14470;SDS011;7321;50.802;4.336;2023-10-13T15:41:53;13.23;;;7.20;;
14470;SDS011;7321;50.802;4.336;2023-10-13T15:44:24;11.95;;;6.60;;
14470;SDS011;7321;50.802;4.336;2023-10-13T15:46:54;13.98;;;7.05;;
14470;SDS011;7321;50.802;4.336;2023-10-13T15:49:21;13.82;;;7.50;;